createdAt,value
2018-11-25T00:00:18.571Z,98.29
2018-11-25T00:02:47.570Z,97.90
2018-11-25T00:05:16.593Z,97.90
2018-11-25T00:07:46.122Z,98.08
2018-11-25T00:10:15.200Z,97.74
2018-11-25T00:12:44.163Z,98.14
2018-11-25T00:15:13.125Z,97.83
2018-11-25T00:17:42.070Z,98.47
2018-11-25T00:20:12.758Z,98.20
2018-11-25T00:22:42.133Z,97.73
2018-11-25T00:25:12.106Z,98.25
2018-11-25T00:27:41.141Z,98.12
2018-11-25T00:30:11.393Z,97.81
2018-11-25T00:32:40.315Z,98.12
2018-11-25T00:35:10.390Z,97.89
2018-11-25T00:37:43.413Z,97.63
2018-11-25T00:40:09.929Z,98.06
2018-11-25T00:42:38.859Z,98.78
2018-11-25T00:45:10.677Z,99.30
2018-11-25T00:47:39.748Z,98.85
2018-11-25T00:50:10.249Z,100.00
2018-11-25T00:52:39.198Z,99.79
2018-11-25T00:55:10.439Z,99.50
2018-11-25T00:57:39.386Z,99.63
2018-11-25T01:00:10.482Z,99.92
2018-11-25T01:02:39.580Z,99.95
2018-11-25T01:05:09.646Z,100.00
2018-11-25T01:07:38.642Z,100.00
2018-11-25T01:10:14.547Z,100.00
2018-11-25T01:12:43.743Z,100.00
2018-11-25T01:15:13.613Z,100.00
2018-11-25T01:17:42.694Z,100.00
2018-11-25T01:20:20.735Z,100.00
2018-11-25T01:22:49.727Z,100.00
2018-11-25T01:25:18.679Z,100.00
2018-11-25T01:27:47.638Z,100.00
2018-11-25T01:30:17.176Z,100.00
2018-11-25T01:32:46.138Z,100.00
2018-11-25T01:35:15.091Z,100.00
2018-11-25T01:37:44.176Z,100.00
2018-11-25T01:40:15.634Z,100.00
2018-11-25T01:42:44.610Z,100.00
2018-11-25T01:45:14.427Z,100.00
2018-11-25T01:47:44.416Z,100.00
2018-11-25T01:50:14.446Z,100.00
2018-11-25T01:52:43.366Z,99.77
2018-11-25T01:55:13.546Z,99.60
2018-11-25T01:57:42.481Z,99.47
2018-11-25T02:00:14.392Z,99.32
2018-11-25T02:02:43.329Z,99.37
2018-11-25T02:05:12.268Z,99.08
2018-11-25T02:07:41.276Z,99.02
2018-11-25T02:10:12.622Z,98.63
2018-11-25T02:12:41.537Z,98.45
2018-11-25T02:15:11.696Z,98.38
2018-11-25T02:17:40.656Z,98.97
2018-11-25T02:20:26.834Z,98.76
2018-11-25T02:22:56.451Z,98.66
2018-11-25T02:25:25.375Z,98.60
2018-11-25T02:27:54.279Z,98.57
2018-11-25T02:30:23.215Z,98.87
2018-11-25T02:32:52.142Z,99.20
2018-11-25T02:35:21.127Z,98.96
2018-11-25T02:37:50.041Z,98.71
2018-11-25T02:40:19.018Z,98.95
2018-11-25T02:42:48.002Z,98.82
2018-11-25T02:45:18.638Z,99.26
2018-11-25T02:47:47.554Z,99.22
2018-11-25T02:50:29.166Z,98.55
2018-11-25T02:53:01.140Z,98.90
2018-11-25T02:55:30.050Z,99.17
2018-11-25T02:57:58.991Z,99.01
2018-11-25T03:00:27.931Z,98.87
2018-11-25T03:02:56.875Z,98.88
2018-11-25T03:05:25.858Z,98.81
2018-11-25T03:07:54.793Z,98.54
2018-11-25T03:10:23.727Z,98.36
2018-11-25T03:12:53.328Z,98.00
2018-11-25T03:15:22.927Z,98.02
2018-11-25T03:17:52.328Z,97.40
2018-11-25T03:20:21.829Z,97.30
2018-11-25T03:22:51.238Z,97.64
2018-11-25T03:25:21.151Z,97.85
2018-11-25T03:27:50.096Z,97.54
2018-11-25T03:30:20.005Z,97.33
2018-11-25T03:32:50.004Z,97.25
2018-11-25T03:35:19.049Z,96.94
2018-11-25T03:37:47.954Z,97.20
2018-11-25T03:40:18.600Z,97.10
2018-11-25T03:42:47.530Z,97.16
2018-11-25T03:45:20.435Z,96.80
2018-11-25T03:47:49.467Z,97.57
2018-11-25T03:50:18.404Z,97.46
2018-11-25T03:52:47.345Z,97.19
2018-11-25T03:55:17.023Z,97.11
2018-11-25T03:57:46.166Z,96.99
2018-11-25T04:00:16.603Z,97.18
2018-11-25T04:02:45.652Z,97.02
2018-11-25T04:05:15.529Z,97.06
2018-11-25T04:07:44.521Z,96.98
2018-11-25T04:10:14.438Z,96.79
2018-11-25T04:12:43.373Z,97.15
2018-11-25T04:15:15.108Z,96.91
2018-11-25T04:17:44.154Z,97.23
2018-11-25T04:20:15.711Z,97.22
2018-11-25T04:22:44.657Z,96.65
2018-11-25T04:25:13.776Z,97.01
2018-11-25T04:27:42.717Z,97.07
2018-11-25T04:30:13.548Z,97.19
2018-11-25T04:32:42.724Z,97.00
2018-11-25T04:35:12.859Z,96.99
2018-11-25T04:37:42.282Z,96.81
2018-11-25T04:40:16.169Z,97.00
2018-11-25T04:42:45.115Z,96.98
2018-11-25T04:45:15.527Z,97.35
2018-11-25T04:47:44.946Z,97.08
2018-11-25T04:50:15.970Z,97.63
2018-11-25T04:52:44.956Z,97.62
2018-11-25T04:55:14.215Z,98.00
2018-11-25T04:57:46.721Z,98.11
2018-11-25T05:00:15.801Z,98.21
2018-11-25T05:02:44.724Z,97.95
2018-11-25T05:05:14.620Z,98.21
2018-11-25T05:07:43.613Z,98.18
2018-11-25T05:10:13.619Z,98.00
2018-11-25T05:12:42.647Z,97.77
2018-11-25T05:15:18.036Z,97.70
2018-11-25T05:17:47.024Z,97.61
2018-11-25T05:20:16.451Z,97.50
2018-11-25T05:22:45.438Z,97.52
2018-11-25T05:25:15.291Z,97.39
2018-11-25T05:27:44.284Z,97.24
2018-11-25T05:30:16.160Z,96.89
2018-11-25T05:32:45.161Z,97.05
2018-11-25T05:35:15.951Z,97.22
2018-11-25T05:37:44.907Z,97.20
2018-11-25T05:40:14.856Z,97.20
2018-11-25T05:42:43.973Z,97.44
2018-11-25T05:45:15.849Z,97.64
2018-11-25T05:47:44.918Z,97.22
2018-11-25T05:50:15.244Z,97.15
2018-11-25T05:52:44.180Z,97.36
2018-11-25T05:55:13.388Z,97.56
2018-11-25T05:57:42.506Z,97.49
2018-11-25T06:00:32.209Z,96.99
2018-11-25T06:03:01.594Z,97.03
2018-11-25T06:05:30.567Z,96.96
2018-11-25T06:07:59.528Z,96.81
2018-11-25T06:10:28.488Z,96.53
2018-11-25T06:12:57.416Z,96.91
2018-11-25T06:15:26.405Z,97.07
2018-11-25T06:17:55.389Z,96.91
2018-11-25T06:20:24.324Z,97.03
2018-11-25T06:22:53.878Z,96.64
2018-11-25T06:25:23.383Z,96.61
2018-11-25T06:27:52.891Z,96.68
2018-11-25T06:30:23.013Z,96.42
2018-11-25T06:32:52.015Z,96.44
2018-11-25T06:35:20.947Z,96.71
2018-11-25T06:37:49.917Z,96.15
2018-11-25T06:40:19.755Z,96.71
2018-11-25T06:42:48.987Z,96.65
2018-11-25T06:45:27.953Z,96.49
2018-11-25T06:47:59.337Z,96.39
2018-11-25T06:50:28.330Z,96.53
2018-11-25T06:52:57.294Z,96.26
2018-11-25T06:55:26.292Z,96.71
2018-11-25T06:57:55.229Z,96.32
2018-11-25T07:00:25.206Z,96.00
2018-11-25T07:02:55.675Z,96.09
2018-11-25T07:05:25.519Z,95.81
2018-11-25T07:07:55.130Z,95.95
2018-11-25T07:10:24.737Z,96.04
2018-11-25T07:12:55.065Z,95.63
2018-11-25T07:15:25.384Z,96.15
2018-11-25T07:17:54.997Z,96.23
2018-11-25T07:20:24.603Z,95.75
2018-11-25T07:22:54.284Z,95.28
2018-11-25T07:25:24.127Z,95.46
2018-11-25T07:27:53.839Z,96.07
2018-11-25T07:30:24.270Z,96.68
2018-11-25T07:32:53.776Z,96.31
2018-11-25T07:35:24.000Z,96.08
2018-11-25T07:37:53.500Z,96.35
2018-11-25T07:40:23.523Z,96.24
2018-11-25T07:42:53.227Z,96.40
2018-11-25T07:45:29.997Z,96.89
2018-11-25T07:47:52.651Z,97.18
2018-11-25T07:50:21.966Z,97.84
2018-11-25T07:52:51.564Z,97.54
2018-11-25T07:55:23.836Z,97.45
2018-11-25T07:57:53.988Z,96.95
2018-11-25T08:00:24.177Z,97.52
2018-11-25T08:02:53.583Z,97.37
2018-11-25T08:05:24.932Z,98.12
2018-11-25T08:07:54.445Z,97.79
2018-11-25T08:10:23.642Z,98.10
2018-11-25T08:12:53.557Z,98.02
2018-11-25T08:15:22.854Z,97.68
2018-11-25T08:17:52.264Z,96.62
2018-11-25T08:20:22.931Z,96.48
2018-11-25T08:22:52.254Z,95.89
2018-11-25T08:25:22.118Z,96.25
2018-11-25T08:27:51.074Z,95.83
2018-11-25T08:30:20.950Z,95.77
2018-11-25T08:32:50.201Z,96.26
2018-11-25T08:35:19.532Z,95.68
2018-11-25T08:37:48.501Z,94.33
2018-11-25T08:40:21.260Z,94.80
2018-11-25T08:42:51.241Z,94.91
2018-11-25T08:45:20.176Z,94.62
2018-11-25T08:47:49.114Z,94.77
2018-11-25T08:50:18.891Z,94.31
2018-11-25T08:52:49.815Z,93.19
2018-11-25T08:55:19.873Z,93.46
2018-11-25T08:57:49.384Z,93.30
2018-11-25T09:00:21.132Z,92.75
2018-11-25T09:02:51.559Z,92.52
2018-11-25T09:05:21.269Z,92.82
2018-11-25T09:07:50.189Z,91.60
2018-11-25T09:10:20.239Z,90.68
2018-11-25T09:12:55.561Z,89.96
2018-11-25T09:15:20.483Z,89.24
2018-11-25T09:17:49.542Z,89.48
2018-11-25T09:20:19.756Z,90.08
2018-11-25T09:22:49.165Z,90.41
2018-11-25T09:25:21.082Z,90.66
2018-11-25T09:27:50.011Z,89.93
2018-11-25T09:30:21.350Z,89.75
2018-11-25T09:32:50.368Z,90.14
2018-11-25T09:35:19.424Z,90.66
2018-11-25T09:37:48.358Z,89.34
2018-11-25T09:40:20.403Z,89.59
2018-11-25T09:42:49.430Z,88.99
2018-11-25T09:45:19.335Z,88.83
2018-11-25T09:47:48.621Z,88.43
2018-11-25T09:50:19.654Z,87.08
2018-11-25T09:52:48.608Z,86.81
2018-11-25T09:55:21.631Z,86.91
2018-11-25T09:57:54.828Z,86.90
2018-11-25T10:00:27.171Z,85.95
2018-11-25T10:02:56.169Z,85.14
2018-11-25T10:05:25.108Z,84.89
2018-11-25T10:07:54.079Z,85.10
2018-11-25T10:10:23.744Z,84.28
2018-11-25T10:12:52.684Z,85.01
2018-11-25T10:15:23.688Z,84.89
2018-11-25T10:17:59.368Z,83.87
2018-11-25T10:20:23.807Z,84.54
2018-11-25T10:22:52.723Z,85.12
2018-11-25T10:25:21.762Z,85.36
2018-11-25T10:27:50.850Z,85.21
2018-11-25T10:30:25.537Z,85.90
2018-11-25T10:32:56.268Z,85.60
2018-11-25T10:35:25.246Z,85.11
2018-11-25T10:37:54.193Z,84.61
2018-11-25T10:40:24.014Z,84.23
2018-11-25T10:42:52.982Z,84.18
2018-11-25T10:45:24.092Z,83.94
2018-11-25T10:47:53.140Z,83.86
2018-11-25T10:50:22.412Z,83.07
2018-11-25T10:52:51.358Z,82.84
2018-11-25T10:55:20.945Z,82.11
2018-11-25T10:57:50.991Z,81.62
2018-11-25T11:00:40.894Z,81.33
2018-11-25T11:03:15.888Z,80.51
2018-11-25T11:05:50.949Z,80.77
2018-11-25T11:08:19.971Z,80.34
2018-11-25T11:10:48.913Z,80.35
2018-11-25T11:13:17.895Z,80.31
2018-11-25T11:15:46.911Z,80.52
2018-11-25T11:18:15.848Z,79.91
2018-11-25T11:20:44.774Z,80.78
2018-11-25T11:23:13.773Z,80.55
2018-11-25T11:25:42.723Z,80.28
2018-11-25T11:28:11.654Z,81.00
2018-11-25T11:30:40.665Z,80.88
2018-11-25T11:33:09.646Z,80.81
2018-11-25T11:35:38.602Z,81.24
2018-11-25T11:38:07.542Z,80.95
2018-11-25T11:40:36.494Z,81.26
2018-11-25T11:43:05.783Z,81.17
2018-11-25T11:45:34.726Z,80.87
2018-11-25T11:48:03.751Z,81.16
2018-11-25T11:50:32.647Z,79.19
2018-11-25T11:53:01.600Z,78.96
2018-11-25T11:55:30.657Z,78.42
2018-11-25T11:57:59.675Z,78.62
2018-11-25T12:00:29.874Z,79.58
2018-11-25T12:02:59.070Z,79.57
2018-11-25T12:05:27.979Z,79.85
2018-11-25T12:07:56.899Z,79.42
2018-11-25T12:10:25.853Z,79.61
2018-11-25T12:12:54.895Z,79.91
2018-11-25T12:15:30.686Z,79.43
2018-11-25T12:17:58.150Z,78.42
2018-11-25T12:20:28.402Z,78.02
2018-11-25T12:22:57.881Z,78.86
2018-11-25T12:25:27.115Z,78.45
2018-11-25T12:27:56.077Z,77.75
2018-11-25T12:30:25.066Z,78.25
2018-11-25T12:32:55.010Z,77.61
2018-11-25T12:35:24.051Z,77.52
2018-11-25T12:37:53.031Z,77.12
2018-11-25T12:40:22.802Z,76.27
2018-11-25T12:42:55.943Z,74.81
2018-11-25T12:45:24.936Z,72.33
2018-11-25T12:47:53.941Z,69.92
2018-11-25T12:50:24.146Z,70.01
2018-11-25T12:52:53.498Z,69.12
2018-11-25T12:55:23.752Z,67.78
2018-11-25T12:57:53.187Z,67.98
2018-11-25T13:00:34.190Z,68.30
2018-11-25T13:03:03.530Z,68.93
2018-11-25T13:05:32.809Z,69.63
2018-11-25T13:08:01.745Z,70.47
2018-11-25T13:10:30.805Z,72.40
2018-11-25T13:12:59.719Z,73.01
2018-11-25T13:15:28.730Z,72.06
2018-11-25T13:17:57.730Z,72.83
2018-11-25T13:20:26.664Z,73.16
2018-11-25T13:22:55.611Z,72.52
2018-11-25T13:25:24.599Z,70.83
2018-11-25T13:27:53.603Z,70.06
2018-11-25T13:30:26.911Z,69.50
2018-11-25T13:32:57.841Z,68.70
2018-11-25T13:35:28.294Z,68.64
2018-11-25T13:37:57.263Z,69.21
2018-11-25T13:40:26.322Z,67.75
2018-11-25T13:42:55.242Z,68.10
2018-11-25T13:45:24.525Z,68.66
2018-11-25T13:47:53.554Z,67.14
2018-11-25T13:50:22.544Z,69.87
2018-11-25T13:52:51.531Z,71.72
2018-11-25T13:55:21.988Z,72.51
2018-11-25T13:57:50.900Z,72.62
2018-11-25T14:00:24.334Z,73.97
2018-11-25T14:02:54.249Z,74.20
2018-11-25T14:05:23.224Z,75.20
2018-11-25T14:07:52.282Z,75.62
2018-11-25T14:10:24.207Z,76.97
2018-11-25T14:12:53.313Z,77.37
2018-11-25T14:15:22.307Z,77.51
2018-11-25T14:17:51.264Z,78.22
2018-11-25T14:20:20.218Z,77.67
2018-11-25T14:22:49.156Z,77.47
2018-11-25T14:25:19.308Z,77.76
2018-11-25T14:27:50.095Z,78.41
2018-11-25T14:30:20.743Z,78.67
2018-11-25T14:32:49.730Z,78.67
2018-11-25T14:35:18.648Z,78.78
2018-11-25T14:37:47.613Z,79.58
2018-11-25T14:40:18.049Z,79.69
2018-11-25T14:42:47.092Z,79.95
2018-11-25T14:45:17.199Z,80.48
2018-11-25T14:47:46.617Z,81.27
2018-11-25T14:50:16.928Z,81.87
2018-11-25T14:52:47.351Z,82.33
2018-11-25T14:55:16.655Z,81.80
2018-11-25T14:57:45.755Z,82.42
2018-11-25T15:00:16.061Z,82.63
2018-11-25T15:02:46.380Z,82.06
2018-11-25T15:05:19.483Z,82.44
2018-11-25T15:07:48.442Z,82.55
2018-11-25T15:10:17.403Z,82.98
2018-11-25T15:12:46.378Z,83.14
2018-11-25T15:15:15.675Z,83.15
2018-11-25T15:17:45.050Z,83.24
2018-11-25T15:20:14.078Z,83.34
2018-11-25T15:22:45.056Z,83.86
2018-11-25T15:25:19.895Z,83.40
2018-11-25T15:27:48.800Z,84.09
2018-11-25T15:30:17.842Z,84.30
2018-11-25T15:32:46.811Z,84.58
2018-11-25T15:35:15.868Z,84.70
2018-11-25T15:37:46.366Z,85.31
2018-11-25T15:40:19.036Z,84.76
2018-11-25T15:42:47.970Z,85.79
2018-11-25T15:45:16.934Z,85.54
2018-11-25T15:47:47.824Z,85.40
2018-11-25T15:50:19.499Z,85.74
2018-11-25T15:52:48.475Z,86.26
2018-11-25T15:55:17.477Z,86.44
2018-11-25T15:57:46.360Z,86.45
2018-11-25T16:00:17.484Z,86.59
2018-11-25T16:02:46.474Z,87.04
2018-11-25T16:05:18.340Z,86.93
2018-11-25T16:07:47.243Z,87.39
2018-11-25T16:10:16.193Z,87.72
2018-11-25T16:12:46.395Z,88.35
2018-11-25T16:15:17.671Z,88.73
2018-11-25T16:17:46.697Z,88.54
2018-11-25T16:20:19.828Z,89.04
2018-11-25T16:22:51.178Z,89.84
2018-11-25T16:25:24.142Z,89.81
2018-11-25T16:27:55.415Z,90.44
2018-11-25T16:30:24.420Z,90.14
2018-11-25T16:32:53.352Z,90.87
2018-11-25T16:35:22.295Z,90.67
2018-11-25T16:37:51.242Z,90.85
2018-11-25T16:40:20.230Z,91.42
2018-11-25T16:42:49.177Z,91.90
2018-11-25T16:45:18.178Z,92.21
2018-11-25T16:47:47.169Z,92.56
2018-11-25T16:50:25.095Z,93.72
2018-11-25T16:52:46.348Z,94.18
2018-11-25T16:55:16.358Z,95.54
2018-11-25T16:57:45.675Z,95.15
2018-11-25T17:00:16.017Z,95.00
2018-11-25T17:02:45.154Z,95.27
2018-11-25T17:05:17.700Z,95.24
2018-11-25T17:07:48.102Z,95.95
2018-11-25T17:10:17.111Z,95.36
2018-11-25T17:12:46.111Z,96.01
2018-11-25T17:15:18.940Z,96.03
2018-11-25T17:17:47.962Z,96.58
2018-11-25T17:20:16.921Z,97.26
2018-11-25T17:22:46.151Z,97.94
2018-11-25T17:25:15.193Z,98.27
2018-11-25T17:27:44.278Z,98.80
2018-11-25T17:30:19.102Z,99.35
2018-11-25T17:32:48.462Z,99.19
2018-11-25T17:35:24.838Z,99.69
2018-11-25T17:37:53.848Z,99.57
2018-11-25T17:40:22.782Z,99.53
2018-11-25T17:42:51.997Z,99.55
2018-11-25T17:45:20.940Z,99.07
2018-11-25T17:47:49.942Z,99.33
2018-11-25T17:50:23.451Z,99.52
2018-11-25T17:52:52.692Z,99.51
2018-11-25T17:55:22.636Z,99.37
2018-11-25T17:57:51.738Z,98.67
2018-11-25T18:00:56.003Z,98.78
2018-11-25T18:03:27.505Z,99.02
2018-11-25T18:05:56.490Z,98.79
2018-11-25T18:08:25.530Z,98.52
2018-11-25T18:10:54.515Z,98.34
2018-11-25T18:13:26.967Z,98.14
2018-11-25T18:15:57.438Z,98.12
2018-11-25T18:18:35.666Z,96.87
2018-11-25T18:21:08.323Z,96.91
2018-11-25T18:23:37.395Z,96.83
2018-11-25T18:26:06.351Z,96.84
2018-11-25T18:28:35.329Z,95.71
2018-11-25T18:31:04.929Z,95.92
2018-11-25T18:33:33.948Z,95.75
2018-11-25T18:36:03.132Z,95.24
2018-11-25T18:38:32.203Z,94.37
2018-11-25T18:41:01.170Z,94.42
2018-11-25T18:43:30.143Z,95.43
2018-11-25T18:45:59.526Z,93.53
2018-11-25T18:48:28.325Z,93.25
2018-11-25T18:50:57.422Z,93.09
2018-11-25T18:53:26.468Z,92.80
2018-11-25T18:55:55.421Z,92.78
2018-11-25T18:58:25.835Z,93.03
2018-11-25T19:01:01.230Z,93.29
2018-11-25T19:03:30.989Z,93.61
2018-11-25T19:05:59.944Z,93.83
2018-11-25T19:08:30.022Z,94.02
2018-11-25T19:10:59.001Z,94.00
2018-11-25T19:13:28.123Z,94.51
2018-11-25T19:15:57.118Z,94.63
2018-11-25T19:18:26.146Z,94.48
2018-11-25T19:20:55.311Z,94.14
2018-11-25T19:23:24.308Z,94.79
2018-11-25T19:25:53.701Z,94.88
2018-11-25T19:28:23.783Z,94.87
2018-11-25T19:30:53.850Z,94.80
2018-11-25T19:33:22.845Z,94.55
2018-11-25T19:35:51.911Z,94.96
2018-11-25T19:38:22.131Z,94.83
2018-11-25T19:40:51.134Z,94.79
2018-11-25T19:43:20.188Z,95.48
2018-11-25T19:45:49.229Z,94.76
2018-11-25T19:48:18.226Z,95.28
2018-11-25T19:50:47.185Z,95.38
2018-11-25T19:53:16.127Z,95.75
2018-11-25T19:55:45.092Z,95.14
2018-11-25T19:58:14.031Z,95.64
2018-11-25T20:00:43.400Z,95.73
2018-11-25T20:03:12.357Z,95.65
2018-11-25T20:05:41.317Z,95.48
2018-11-25T20:08:10.302Z,95.51
2018-11-25T20:10:39.253Z,95.11
2018-11-25T20:13:09.293Z,95.89
2018-11-25T20:15:38.314Z,96.46
2018-11-25T20:18:08.641Z,96.42
2018-11-25T20:20:37.843Z,96.22
2018-11-25T20:23:07.133Z,96.35
2018-11-25T20:25:36.117Z,96.65
2018-11-25T20:28:05.060Z,97.25
2018-11-25T20:30:34.337Z,97.45
2018-11-25T20:33:13.552Z,97.57
2018-11-25T20:35:42.773Z,97.53
2018-11-25T20:38:17.212Z,97.54
2018-11-25T20:40:46.264Z,97.21
2018-11-25T20:43:15.341Z,96.75
2018-11-25T20:45:49.667Z,96.60
2018-11-25T20:48:18.699Z,97.31
2018-11-25T20:50:47.639Z,97.06
2018-11-25T20:53:22.192Z,97.56
2018-11-25T20:55:51.178Z,98.25
2018-11-25T20:58:21.081Z,97.97
2018-11-25T21:00:50.541Z,97.97
2018-11-25T21:03:19.494Z,97.56
2018-11-25T21:05:48.415Z,97.83
2018-11-25T21:08:17.642Z,97.73
2018-11-25T21:10:46.961Z,98.39
2018-11-25T21:13:16.070Z,98.71
2018-11-25T21:15:45.177Z,98.83
2018-11-25T21:18:14.114Z,98.79
2018-11-25T21:20:50.892Z,98.75
2018-11-25T21:23:12.040Z,99.18
2018-11-25T21:25:41.266Z,99.04
2018-11-25T21:28:10.473Z,99.06
2018-11-25T21:30:39.627Z,99.14
2018-11-25T21:33:08.591Z,99.05
2018-11-25T21:35:37.562Z,98.96
2018-11-25T21:38:06.517Z,98.61
2018-11-25T21:40:35.560Z,98.57
2018-11-25T21:43:04.563Z,99.10
2018-11-25T21:45:33.474Z,98.90
2018-11-25T21:48:02.473Z,98.84
2018-11-25T21:50:31.509Z,98.64
2018-11-25T21:53:00.435Z,98.49
2018-11-25T21:55:29.374Z,98.52
2018-11-25T21:57:58.358Z,98.02
2018-11-25T22:00:27.395Z,99.82
2018-11-25T22:02:56.450Z,99.61
2018-11-25T22:05:25.390Z,99.50
2018-11-25T22:07:54.335Z,99.58
2018-11-25T22:10:23.238Z,100.00
2018-11-25T22:12:52.166Z,99.68
2018-11-25T22:15:22.257Z,99.26
2018-11-25T22:17:51.245Z,99.91
2018-11-25T22:20:20.171Z,99.87
2018-11-25T22:22:49.099Z,100.00
2018-11-25T22:25:19.040Z,100.00
2018-11-25T22:27:48.347Z,100.00
2018-11-25T22:30:18.399Z,100.00
2018-11-25T22:32:47.374Z,99.91
2018-11-25T22:35:17.500Z,99.82
2018-11-25T22:37:46.513Z,100.00
2018-11-25T22:40:16.959Z,100.00
2018-11-25T22:42:46.953Z,99.70
2018-11-25T22:45:23.387Z,99.43
2018-11-25T22:47:52.326Z,99.40
2018-11-25T22:50:25.532Z,99.82
2018-11-25T22:52:51.231Z,99.48
2018-11-25T22:55:24.390Z,99.54
2018-11-25T22:57:53.425Z,99.11
2018-11-25T23:00:31.394Z,98.95
2018-11-25T23:03:00.696Z,99.25
2018-11-25T23:06:39.781Z,99.12
2018-11-25T23:09:08.831Z,99.30
2018-11-25T23:11:37.848Z,99.32
2018-11-25T23:14:06.840Z,99.35
2018-11-25T23:16:35.770Z,99.47
2018-11-25T23:19:04.775Z,98.89
2018-11-25T23:21:33.755Z,99.12
2018-11-25T23:24:03.631Z,98.35
2018-11-25T23:26:31.655Z,97.93
2018-11-25T23:29:00.582Z,97.58
2018-11-25T23:31:29.595Z,97.86
2018-11-25T23:33:58.529Z,97.43
2018-11-25T23:36:27.477Z,97.52
2018-11-25T23:38:56.475Z,97.64
2018-11-25T23:41:25.457Z,96.87
2018-11-25T23:43:54.407Z,97.16
2018-11-25T23:46:23.340Z,97.33
2018-11-25T23:48:52.554Z,97.38
2018-11-25T23:51:21.514Z,97.89
2018-11-25T23:53:50.534Z,98.21
2018-11-25T23:56:19.435Z,98.57
2018-11-25T23:58:48.414Z,98.60
